Terminal Aerodrome Forecast
Issued by NWS

Home | Current Version | Previous Version | Text Only | Print | Product List | Glossary On
Versions: 1 2 3 4 5 6 7 8 9 10 11 12 13 14 15
767
FTUS46 KPDT 192320
TAFPSC
TAF
KPSC 192320Z 2000/2024 23007KT P6SM BKN070 OVC080
     FM200300 24008KT P6SM -RA OVC070
     FM200800 22013KT P6SM SCT060
     FM201700 24020G33KT P6SM FEW060=

USA.gov is the U.S. government's official web portal to all federal, state and local government web resources and services.